Terminal Aerodrome Forecast
Issued by NWS North Platte, NE

Home | Current Version | Previous Version | Text Only | Print | Product List | Glossary On
Versions: 1 2 3 4 5 6 7 8 9 10 11 12 13 14 15 16 17 18 19 20 21 22 23 24
000
FTUS43 KLBF 231740
TAFVTN
TAF
KVTN 231740Z 2318/2418 12012KT 4SM -RA BR BKN015 OVC040
     FM232000 12010KT P6SM VCSH OVC030
     FM240100 VRB04KT P6SM OVC020
     FM240500 VRB03KT P6SM OVC015
     FM240900 VRB03KT P6SM BKN007=

USA.gov is the U.S. government's official web portal to all federal, state and local government web resources and services.